createdAt,value
2023-05-01T00:02:53.150Z,63.13
2023-05-01T00:05:21.282Z,63.25
2023-05-01T00:07:49.837Z,63.26
2023-05-01T00:10:19.480Z,63.22
2023-05-01T00:12:47.536Z,63.32
2023-05-01T00:15:15.787Z,63.41
2023-05-01T00:17:43.900Z,63.50
2023-05-01T00:20:12.156Z,63.39
2023-05-01T00:22:40.277Z,63.42
2023-05-01T00:25:08.819Z,63.55
2023-05-01T00:27:37.099Z,63.43
2023-05-01T00:30:06.088Z,63.43
2023-05-01T00:32:34.663Z,63.35
2023-05-01T00:35:02.821Z,63.24
2023-05-01T00:37:31.209Z,63.41
2023-05-01T00:39:59.652Z,63.40
2023-05-01T00:42:27.916Z,63.56
2023-05-01T00:44:56.020Z,63.63
2023-05-01T00:47:24.196Z,63.79
2023-05-01T00:49:53.265Z,63.88
2023-05-01T00:52:21.435Z,63.93
2023-05-01T00:54:52.222Z,64.00
2023-05-01T00:57:20.992Z,63.88
2023-05-01T00:59:49.510Z,63.92
2023-05-01T01:02:17.618Z,63.92
2023-05-01T01:04:48.223Z,63.75
2023-05-01T01:07:34.691Z,63.84
2023-05-01T01:10:10.381Z,63.81
2023-05-01T01:12:46.060Z,63.81
2023-05-01T01:15:22.364Z,63.92
2023-05-01T01:18:09.926Z,63.97
2023-05-01T01:20:45.605Z,64.15
2023-05-01T01:23:25.768Z,64.27
2023-05-01T01:25:57.161Z,64.23
2023-05-01T01:28:40.192Z,64.31
2023-05-01T01:31:21.109Z,64.42
2023-05-01T01:34:27.840Z,64.39
2023-05-01T01:37:13.345Z,64.62
2023-05-01T01:40:10.516Z,64.66
2023-05-01T01:42:43.331Z,64.68
2023-05-01T01:45:22.056Z,64.65
2023-05-01T01:47:52.414Z,64.76
2023-05-01T01:50:24.869Z,64.76
2023-05-01T01:52:54.929Z,64.80
2023-05-01T01:55:25.466Z,64.81
2023-05-01T01:57:54.369Z,64.72
2023-05-01T02:00:23.574Z,64.74
2023-05-01T02:02:53.887Z,64.95
2023-05-01T02:05:24.340Z,64.80
2023-05-01T02:07:53.212Z,64.72
2023-05-01T02:10:23.224Z,64.71
2023-05-01T02:12:53.313Z,64.64
2023-05-01T02:15:21.465Z,64.63
2023-05-01T02:17:51.395Z,64.72
2023-05-01T02:20:21.731Z,64.82
2023-05-01T02:22:53.363Z,64.95
2023-05-01T02:25:22.343Z,64.97
2023-05-01T02:27:53.173Z,64.81
2023-05-01T02:30:21.394Z,64.92
2023-05-01T02:32:49.535Z,64.87
2023-05-01T02:35:17.969Z,64.80
2023-05-01T02:37:46.444Z,64.85
2023-05-01T02:40:15.317Z,64.99
2023-05-01T02:42:45.131Z,64.89
2023-05-01T02:45:20.007Z,65.16
2023-05-01T02:47:55.279Z,65.02
2023-05-01T02:50:24.685Z,65.14
2023-05-01T02:52:54.154Z,65.33
2023-05-01T02:55:22.510Z,65.25
2023-05-01T02:57:53.566Z,65.32
2023-05-01T03:00:21.830Z,65.16
2023-05-01T03:02:49.904Z,65.39
2023-05-01T03:05:18.086Z,65.36
2023-05-01T03:07:47.447Z,65.41
2023-05-01T03:10:15.825Z,65.45
2023-05-01T03:12:44.478Z,65.29
2023-05-01T03:15:13.142Z,65.68
2023-05-01T03:17:41.318Z,65.66
2023-05-01T03:20:11.144Z,65.54
2023-05-01T03:22:40.277Z,65.44
2023-05-01T03:25:09.504Z,65.60
2023-05-01T03:27:37.596Z,65.47
2023-05-01T03:30:06.359Z,65.49
2023-05-01T03:32:34.900Z,65.49
2023-05-01T03:35:03.143Z,65.60
2023-05-01T03:37:31.530Z,65.79
2023-05-01T03:39:59.984Z,65.74
2023-05-01T03:42:28.242Z,65.85
2023-05-01T03:44:56.369Z,65.89
2023-05-01T03:47:24.468Z,66.20
2023-05-01T03:49:52.750Z,66.02
2023-05-01T03:52:20.874Z,66.40
2023-05-01T03:54:50.050Z,65.93
2023-05-01T03:57:18.232Z,66.45
2023-05-01T03:59:47.483Z,66.30
2023-05-01T04:02:15.586Z,66.36
2023-05-01T04:04:44.162Z,66.31
2023-05-01T04:07:13.275Z,66.41
2023-05-01T04:09:41.493Z,66.68
2023-05-01T04:12:09.855Z,66.45
2023-05-01T04:14:37.921Z,66.51
2023-05-01T04:17:06.303Z,66.78
2023-05-01T04:19:34.923Z,66.92
2023-05-01T04:22:02.969Z,66.95
2023-05-01T04:24:31.052Z,66.80
2023-05-01T04:26:59.274Z,66.95
2023-05-01T04:29:27.384Z,66.84
2023-05-01T04:31:55.479Z,67.05
2023-05-01T04:34:23.859Z,66.84
2023-05-01T04:36:51.987Z,66.72
2023-05-01T04:39:20.098Z,66.82
2023-05-01T04:41:48.204Z,66.88
2023-05-01T04:44:16.605Z,66.73
2023-05-01T04:46:45.093Z,66.73
2023-05-01T04:49:13.300Z,66.50
2023-05-01T04:51:41.722Z,66.53
2023-05-01T04:54:09.778Z,66.63
2023-05-01T04:56:37.931Z,66.48
2023-05-01T04:59:06.571Z,66.51
2023-05-01T05:01:34.608Z,66.22
2023-05-01T05:04:03.016Z,66.03
2023-05-01T05:06:31.938Z,66.38
2023-05-01T05:09:00.081Z,65.85
2023-05-01T05:11:28.213Z,65.92
2023-05-01T05:13:56.304Z,65.94
2023-05-01T05:16:24.509Z,66.32
2023-05-01T05:18:52.646Z,66.66
2023-05-01T05:21:20.743Z,66.95
2023-05-01T05:23:48.893Z,66.52
2023-05-01T05:26:17.052Z,66.33
2023-05-01T05:28:45.752Z,65.77
2023-05-01T05:31:13.905Z,66.10
2023-05-01T05:33:42.098Z,65.68
2023-05-01T05:36:10.426Z,65.31
2023-05-01T05:38:38.751Z,66.20
2023-05-01T05:41:06.970Z,66.00
2023-05-01T05:43:35.048Z,65.37
2023-05-01T05:46:03.249Z,64.52
2023-05-01T05:48:31.465Z,64.77
2023-05-01T05:50:59.581Z,63.69
2023-05-01T05:53:27.606Z,63.73
2023-05-01T05:55:56.078Z,62.16
2023-05-01T05:58:24.770Z,61.02
2023-05-01T06:00:59.338Z,60.34
2023-05-01T06:03:27.690Z,59.97
2023-05-01T06:05:56.170Z,59.81
2023-05-01T06:08:24.389Z,59.59
2023-05-01T06:10:52.564Z,59.15
2023-05-01T06:13:20.773Z,59.38
2023-05-01T06:15:49.103Z,59.26
2023-05-01T06:18:17.554Z,58.71
2023-05-01T06:20:47.354Z,58.54
2023-05-01T06:23:16.393Z,58.27
2023-05-01T06:25:44.572Z,58.09
2023-05-01T06:28:12.653Z,58.11
2023-05-01T06:30:40.805Z,58.10
2023-05-01T06:33:10.432Z,57.27
2023-05-01T06:35:41.586Z,57.25
2023-05-01T06:38:09.695Z,57.17
2023-05-01T06:40:37.751Z,57.20
2023-05-01T06:43:05.974Z,56.95
2023-05-01T06:45:34.140Z,56.97
2023-05-01T06:48:02.480Z,56.98
2023-05-01T06:50:30.712Z,56.94
2023-05-01T06:53:01.080Z,57.00
2023-05-01T06:55:35.209Z,56.76
2023-05-01T06:58:16.026Z,56.52
2023-05-01T07:00:51.569Z,56.99
2023-05-01T07:03:19.767Z,57.05
2023-05-01T07:05:48.589Z,56.81
2023-05-01T07:08:16.658Z,56.99
2023-05-01T07:10:44.790Z,57.12
2023-05-01T07:13:12.897Z,57.01
2023-05-01T07:15:40.936Z,56.80
2023-05-01T07:18:09.906Z,57.04
2023-05-01T07:20:38.155Z,57.37
2023-05-01T07:23:07.521Z,56.93
2023-05-01T07:25:44.488Z,56.76
2023-05-01T07:28:12.625Z,56.98
2023-05-01T07:30:40.854Z,56.92
2023-05-01T07:33:08.928Z,57.03
2023-05-01T07:35:37.533Z,57.31
2023-05-01T07:38:05.733Z,57.29
2023-05-01T07:40:34.969Z,57.01
2023-05-01T07:43:03.075Z,56.80
2023-05-01T07:45:31.509Z,56.90
2023-05-01T07:47:59.805Z,57.16
2023-05-01T07:50:27.981Z,57.15
2023-05-01T07:52:56.196Z,57.28
2023-05-01T07:55:24.830Z,57.13
2023-05-01T07:57:52.865Z,57.21
2023-05-01T08:00:21.107Z,56.92
2023-05-01T08:02:49.240Z,56.87
2023-05-01T08:05:17.385Z,56.47
2023-05-01T08:07:45.544Z,56.36
2023-05-01T08:10:13.850Z,56.40
2023-05-01T08:12:41.940Z,56.56
2023-05-01T08:15:10.095Z,56.76
2023-05-01T08:17:38.461Z,56.65
2023-05-01T08:20:07.293Z,56.42
2023-05-01T08:22:35.480Z,56.44
2023-05-01T08:25:04.841Z,56.37
2023-05-01T08:27:33.900Z,55.58
2023-05-01T08:30:01.997Z,55.39
2023-05-01T08:32:30.240Z,55.55
2023-05-01T08:34:58.393Z,55.56
2023-05-01T08:37:26.933Z,55.19
2023-05-01T08:39:55.105Z,55.19
2023-05-01T08:42:23.664Z,55.26
2023-05-01T08:44:54.619Z,54.92
2023-05-01T08:47:22.880Z,54.89
2023-05-01T08:49:52.507Z,55.27
2023-05-01T08:52:22.315Z,54.97
2023-05-01T08:54:54.717Z,54.57
2023-05-01T08:57:24.198Z,54.41
2023-05-01T08:59:53.760Z,54.42
2023-05-01T09:02:33.929Z,53.90
2023-05-01T09:05:04.126Z,54.22
2023-05-01T09:07:35.562Z,54.48
2023-05-01T09:10:04.303Z,54.47
2023-05-01T09:12:35.880Z,54.24
2023-05-01T09:15:04.572Z,54.48
2023-05-01T09:17:33.211Z,54.07
2023-05-01T09:20:08.027Z,53.53
2023-05-01T09:22:36.669Z,53.92
2023-05-01T09:25:05.221Z,54.26
2023-05-01T09:27:38.245Z,54.20
2023-05-01T09:30:07.732Z,54.18
2023-05-01T09:32:42.462Z,53.62
2023-05-01T09:35:14.920Z,52.49
2023-05-01T09:37:43.983Z,51.91
2023-05-01T09:40:16.332Z,51.92
2023-05-01T09:43:01.698Z,52.47
2023-05-01T09:45:30.194Z,52.38
2023-05-01T09:48:36.132Z,51.90
2023-05-01T09:51:57.316Z,51.21
2023-05-01T09:54:29.076Z,50.62
2023-05-01T09:57:17.102Z,50.55
2023-05-01T10:00:10.625Z,50.65
2023-05-01T10:02:46.012Z,50.27
2023-05-01T10:05:20.617Z,49.69
2023-05-01T10:08:27.725Z,49.44
2023-05-01T10:16:31.344Z,50.32
2023-05-01T11:00:04.134Z,45.98
2023-05-01T11:03:20.998Z,45.72
2023-05-01T11:06:10.288Z,45.42
2023-05-01T11:08:41.444Z,44.96
2023-05-01T11:11:28.439Z,44.57
2023-05-01T11:14:06.464Z,44.10
2023-05-01T11:16:46.094Z,43.71
2023-05-01T11:19:29.841Z,43.79
2023-05-01T11:22:14.777Z,43.56
2023-05-01T11:24:43.502Z,43.45
2023-05-01T11:27:14.296Z,42.88
2023-05-01T11:30:20.886Z,42.85
2023-05-01T11:33:22.050Z,42.09
2023-05-01T11:36:27.918Z,41.58
2023-05-01T11:39:25.158Z,41.34
2023-05-01T11:42:13.328Z,41.78
2023-05-01T11:48:31.225Z,41.12
2023-05-01T11:51:02.134Z,41.15
2023-05-01T11:53:47.709Z,41.42
2023-05-01T11:56:26.910Z,40.92
2023-05-01T11:59:18.479Z,40.53
2023-05-01T12:01:55.366Z,40.54
2023-05-01T12:04:32.321Z,40.96
2023-05-01T12:07:39.490Z,40.93
2023-05-01T12:10:08.608Z,40.77
2023-05-01T12:12:36.934Z,40.77
2023-05-01T12:15:05.831Z,40.95
2023-05-01T12:17:36.850Z,40.29
2023-05-01T12:20:06.071Z,39.68
2023-05-01T12:22:34.441Z,38.82
2023-05-01T12:25:04.500Z,38.39
2023-05-01T12:27:33.063Z,38.17
2023-05-01T12:30:03.717Z,37.96
2023-05-01T12:32:33.756Z,37.89
2023-05-01T12:35:13.376Z,38.31
2023-05-01T12:37:41.555Z,39.20
2023-05-01T12:40:17.193Z,39.02
2023-05-01T12:42:54.627Z,39.77
2023-05-01T12:45:23.583Z,39.78
2023-05-01T12:47:52.186Z,39.52
2023-05-01T12:50:21.001Z,39.56
2023-05-01T12:52:49.714Z,39.51
2023-05-01T12:55:17.989Z,39.55
2023-05-01T12:57:54.927Z,39.02
2023-05-01T13:00:23.587Z,38.67
2023-05-01T13:02:51.948Z,39.08
2023-05-01T13:05:20.164Z,38.82
2023-05-01T13:07:49.784Z,38.35
2023-05-01T13:10:29.434Z,38.10
2023-05-01T13:12:57.757Z,38.02
2023-05-01T13:15:26.011Z,37.78
2023-05-01T13:17:54.278Z,36.64
2023-05-01T13:20:29.645Z,37.15
2023-05-01T13:22:57.850Z,37.31
2023-05-01T13:25:26.178Z,36.66
2023-05-01T13:27:54.510Z,36.55
2023-05-01T13:30:33.060Z,36.17
2023-05-01T13:33:02.089Z,36.79
2023-05-01T13:35:31.753Z,36.73
2023-05-01T13:38:03.445Z,37.08
2023-05-01T13:40:34.288Z,36.44
2023-05-01T13:43:03.143Z,36.28
2023-05-01T13:45:31.428Z,36.33
2023-05-01T13:47:59.593Z,36.31
2023-05-01T13:50:28.329Z,36.29
2023-05-01T13:52:56.614Z,36.41
2023-05-01T13:55:24.877Z,36.09
2023-05-01T13:57:53.229Z,36.31
2023-05-01T14:00:22.654Z,36.20
2023-05-01T14:02:53.301Z,36.07
2023-05-01T14:05:27.649Z,36.10
2023-05-01T14:07:58.463Z,35.99
2023-05-01T14:10:29.098Z,35.69
2023-05-01T14:12:59.025Z,34.79
2023-05-01T14:15:31.693Z,35.00
2023-05-01T14:18:20.838Z,34.76
2023-05-01T14:20:49.049Z,34.76
2023-05-01T14:23:17.322Z,34.92
2023-05-01T14:25:46.704Z,34.91
2023-05-01T14:28:15.538Z,34.78
2023-05-01T14:30:44.009Z,34.48
2023-05-01T14:33:13.355Z,34.38
2023-05-01T14:57:10.902Z,33.64
2023-05-01T14:59:41.136Z,33.64
2023-05-01T15:06:08.424Z,33.23
2023-05-01T15:10:15.033Z,33.10
2023-05-01T15:13:15.268Z,32.95
2023-05-01T15:22:14.469Z,32.67
2023-05-01T15:29:17.850Z,32.58
2023-05-01T15:40:36.074Z,32.87
2023-05-01T15:43:19.257Z,32.85
2023-05-01T15:46:25.670Z,32.83
2023-05-01T15:49:16.191Z,33.03
2023-05-01T15:51:48.788Z,32.99
2023-05-01T15:54:40.234Z,33.21
2023-05-01T15:57:52.595Z,33.38
2023-05-01T16:00:43.216Z,33.16
2023-05-01T16:04:18.172Z,33.24
2023-05-01T16:06:49.024Z,33.57
2023-05-01T16:09:25.958Z,33.63
2023-05-01T16:18:19.799Z,33.70
2023-05-01T16:21:12.879Z,33.72
2023-05-01T16:28:13.094Z,33.79
2023-05-01T16:30:59.637Z,33.87
2023-05-01T16:37:29.179Z,33.88
2023-05-01T16:39:59.992Z,34.04
2023-05-01T16:42:28.758Z,34.14
2023-05-01T16:44:58.714Z,34.29
2023-05-01T16:47:26.927Z,34.26
2023-05-01T16:50:00.685Z,33.99
2023-05-01T16:52:29.170Z,34.02
2023-05-01T16:54:59.082Z,34.08
2023-05-01T16:57:30.162Z,33.87
2023-05-01T17:00:03.214Z,34.00
2023-05-01T17:02:31.892Z,34.06
2023-05-01T17:05:00.489Z,34.05
2023-05-01T17:07:28.768Z,34.10
2023-05-01T17:09:57.060Z,34.16
2023-05-01T17:12:25.810Z,34.02
2023-05-01T17:14:54.315Z,34.24
2023-05-01T17:17:23.471Z,34.39
2023-05-01T17:19:52.775Z,34.38
2023-05-01T17:22:20.988Z,34.47
2023-05-01T17:24:50.745Z,34.42
2023-05-01T17:27:18.736Z,34.76
2023-05-01T17:29:47.182Z,34.79
2023-05-01T17:32:20.331Z,34.69
2023-05-01T17:35:01.567Z,34.73
2023-05-01T17:37:29.651Z,34.72
2023-05-01T17:39:58.101Z,34.88
2023-05-01T17:42:26.559Z,34.96
2023-05-01T17:44:54.673Z,35.07
2023-05-01T17:47:25.320Z,35.35
2023-05-01T17:49:54.721Z,35.35
2023-05-01T17:52:22.991Z,35.55
2023-05-01T17:54:51.399Z,35.75
2023-05-01T17:57:19.746Z,35.74
2023-05-01T17:59:48.092Z,35.82
2023-05-01T18:02:16.433Z,35.88
2023-05-01T18:04:46.046Z,36.07
2023-05-01T18:07:14.241Z,36.21
2023-05-01T18:09:42.618Z,36.33
2023-05-01T18:12:11.415Z,36.52
2023-05-01T18:14:39.827Z,36.66
2023-05-01T18:17:08.268Z,36.95
2023-05-01T18:19:36.474Z,37.38
2023-05-01T18:22:05.990Z,37.69
2023-05-01T18:24:42.697Z,38.28
2023-05-01T18:27:12.392Z,38.68
2023-05-01T18:29:40.849Z,39.02
2023-05-01T18:32:12.757Z,39.42
2023-05-01T18:34:42.351Z,39.86
2023-05-01T18:37:10.600Z,40.20
2023-05-01T18:39:39.287Z,40.47
2023-05-01T18:42:07.461Z,40.77
2023-05-01T18:44:35.668Z,41.10
2023-05-01T18:47:04.377Z,41.22
2023-05-01T18:49:32.948Z,41.52
2023-05-01T18:52:22.502Z,41.60
2023-05-01T18:55:00.142Z,41.53
2023-05-01T18:57:31.899Z,41.54
2023-05-01T19:00:01.467Z,41.70
2023-05-01T19:02:51.681Z,41.87
2023-05-01T19:05:41.572Z,42.32
2023-05-01T19:08:11.194Z,42.72
2023-05-01T19:10:43.961Z,42.92
2023-05-01T19:13:12.461Z,43.10
2023-05-01T19:15:42.287Z,43.45
2023-05-01T19:18:37.552Z,43.64
2023-05-01T19:21:06.111Z,43.91
2023-05-01T19:23:35.671Z,44.08
2023-05-01T19:26:05.121Z,44.18
2023-05-01T19:28:33.722Z,44.23
2023-05-01T19:31:02.558Z,44.37
2023-05-01T19:33:32.064Z,44.49
2023-05-01T19:36:00.908Z,44.64
2023-05-01T19:38:29.888Z,44.84
2023-05-01T19:40:58.278Z,44.89
2023-05-01T19:43:26.741Z,45.05
2023-05-01T19:45:55.269Z,45.06
2023-05-01T19:48:23.857Z,45.13
2023-05-01T19:50:52.210Z,45.22
2023-05-01T19:53:21.233Z,45.02
2023-05-01T19:55:50.942Z,45.13
2023-05-01T19:58:19.539Z,45.19
2023-05-01T20:00:48.482Z,45.12
2023-05-01T20:03:17.733Z,45.28
2023-05-01T20:05:46.345Z,45.35
2023-05-01T20:08:15.315Z,45.43
2023-05-01T20:10:43.713Z,45.48
2023-05-01T20:13:12.037Z,45.16
2023-05-01T20:15:43.331Z,45.29
2023-05-01T20:18:13.348Z,45.18
2023-05-01T20:20:41.985Z,45.30
2023-05-01T20:23:11.216Z,45.31
2023-05-01T20:25:40.111Z,45.37
2023-05-01T20:28:10.667Z,45.35
2023-05-01T20:30:41.855Z,45.38
2023-05-01T20:33:10.203Z,45.43
2023-05-01T20:35:39.488Z,45.46
2023-05-01T20:38:07.741Z,45.51
2023-05-01T20:40:40.345Z,45.52
2023-05-01T20:43:09.943Z,45.71
2023-05-01T20:45:39.813Z,45.76
2023-05-01T20:48:09.918Z,46.06
2023-05-01T20:51:07.677Z,45.97
2023-05-01T20:53:35.964Z,46.13
2023-05-01T20:56:04.783Z,46.20
2023-05-01T20:58:35.727Z,46.36
2023-05-01T21:01:05.731Z,46.40
2023-05-01T21:03:35.182Z,46.69
2023-05-01T21:06:05.062Z,46.80
2023-05-01T21:08:34.698Z,47.05
2023-05-01T21:11:03.590Z,46.92
2023-05-01T21:13:32.461Z,47.19
2023-05-01T21:16:01.567Z,47.27
2023-05-01T21:18:34.497Z,47.59
2023-05-01T21:21:03.898Z,47.75
2023-05-01T21:23:32.217Z,48.06
2023-05-01T21:26:00.824Z,48.37
2023-05-01T21:28:29.361Z,48.62
2023-05-01T21:31:00.045Z,48.81
2023-05-01T21:33:30.664Z,48.87
2023-05-01T21:35:59.219Z,49.35
2023-05-01T21:38:29.986Z,49.32
2023-05-01T21:41:06.337Z,49.56
2023-05-01T21:43:36.016Z,49.73
2023-05-01T21:46:04.455Z,49.66
2023-05-01T21:48:35.243Z,49.52
2023-05-01T21:51:03.988Z,49.50
2023-05-01T21:53:32.680Z,49.73
2023-05-01T21:56:01.232Z,49.88
2023-05-01T21:58:29.396Z,50.09
2023-05-01T22:00:59.675Z,50.19
2023-05-01T22:03:27.914Z,50.28
2023-05-01T22:05:56.117Z,50.32
2023-05-01T22:08:29.752Z,49.78
2023-05-01T22:10:58.268Z,50.23
2023-05-01T22:13:33.298Z,50.68
2023-05-01T22:16:01.712Z,50.92
2023-05-01T22:18:30.421Z,51.29
2023-05-01T22:21:00.254Z,51.31
2023-05-01T22:23:28.413Z,51.43
2023-05-01T22:26:01.568Z,51.57
2023-05-01T22:28:29.760Z,51.82
2023-05-01T22:30:58.034Z,51.62
2023-05-01T22:33:26.232Z,51.74
2023-05-01T22:35:54.422Z,51.89
2023-05-01T22:38:22.634Z,52.01
2023-05-01T22:40:50.800Z,52.30
2023-05-01T22:43:19.281Z,52.32
2023-05-01T22:45:48.341Z,52.36
2023-05-01T22:48:17.096Z,52.37
2023-05-01T22:50:45.345Z,52.60
2023-05-01T22:53:13.802Z,52.86
2023-05-01T22:55:41.907Z,53.10
2023-05-01T22:58:10.086Z,53.31
2023-05-01T23:00:38.301Z,53.42
2023-05-01T23:03:06.832Z,53.42
2023-05-01T23:05:35.897Z,53.56
2023-05-01T23:08:04.130Z,53.47
2023-05-01T23:10:33.798Z,53.38
2023-05-01T23:13:02.250Z,53.85
2023-05-01T23:15:30.424Z,53.83
2023-05-01T23:17:58.623Z,53.86
2023-05-01T23:20:26.783Z,53.92
2023-05-01T23:22:54.850Z,53.86
2023-05-01T23:25:26.942Z,53.89
2023-05-01T23:27:56.626Z,53.99
2023-05-01T23:30:24.893Z,54.21
2023-05-01T23:32:59.518Z,54.35
2023-05-01T23:35:27.783Z,54.32
2023-05-01T23:37:56.090Z,54.26
2023-05-01T23:40:24.325Z,54.21
2023-05-01T23:42:53.098Z,54.51
2023-05-01T23:45:21.245Z,54.57
2023-05-01T23:47:49.325Z,54.57
2023-05-01T23:50:18.204Z,54.61
2023-05-01T23:52:46.752Z,54.78
2023-05-01T23:55:14.827Z,54.89
2023-05-01T23:57:43.130Z,54.83
